BIKF/KEF METAR and TAF weather

Enter ICAO airport designator
Station Type Date Time Source
BIKF METAR 2018/01/22 20:00 UTC NOAA

BIKF 222000Z 10027KT 9999 -RA FEW017 BKN024 OVC032 02/00 Q0982


Station Type Date Time Source
BIKF Decoded METAR 2018/01/22 20:00 UTC NOAA

Keflavikurflugvollur, Iceland (BIKF) 63-58N 022-36W 54M
Jan 22, 2018 - 03:00 PM EST / 2018.01.22 2000 UTC
Wind: from the E (100 degrees) at 31 MPH (27 KT):0
Visibility: greater than 7 mile(s):0
Sky conditions: overcast
Weather: light rain
Temperature: 35 F (2 C)
Windchill: 21 F (-6 C):1
Dew Point: 32 F (0 C)
Relative Humidity: 86%
Pressure (altimeter): 29.00 in. Hg (0982 hPa)
ob: BIKF 222000Z 10027KT 9999 -RA FEW017 BKN024 OVC032 02/00 Q0982
cycle: 20

Station Type Date Time Source
BIKF TAF 2018/01/22 21:00 UTC NOAA

TAF BIKF 221958Z 2221/2321 08030G40KT 9999 -RASN BKN015 OVC030 TX03/2303Z TNM02/2321Z
TEMPO 2221/2302 3000 SNRA BKN010 OVC015 PROB40
TEMPO 2221/2223 10037G55KT
BECMG 2223/2302 12015KT
BECMG 2303/2306 9999 SCT015 BKN025
BECMG 2313/2315 06008KT


Example: see airport list